sensor_id;sensor_type;location;lat;lon;timestamp;P1;durP1;ratioP1;P2;durP2;ratioP2
70467;SDS011;57934;51.532;7.684;2023-07-30T00:00:22;9.90;;;3.90;;
70467;SDS011;57934;51.532;7.684;2023-07-30T00:02:48;5.70;;;4.07;;
70467;SDS011;57934;51.532;7.684;2023-07-30T00:05:14;4.95;;;3.97;;
70467;SDS011;57934;51.532;7.684;2023-07-30T00:07:40;5.50;;;3.83;;
70467;SDS011;57934;51.532;7.684;2023-07-30T00:10:06;3.78;;;3.25;;
70467;SDS011;57934;51.532;7.684;2023-07-30T00:12:33;4.88;;;3.28;;
70467;SDS011;57934;51.532;7.684;2023-07-30T00:14:59;4.88;;;3.70;;
70467;SDS011;57934;51.532;7.684;2023-07-30T00:17:25;3.97;;;3.58;;
70467;SDS011;57934;51.532;7.684;2023-07-30T00:19:51;5.40;;;3.63;;
70467;SDS011;57934;51.532;7.684;2023-07-30T00:22:17;9.88;;;4.13;;
70467;SDS011;57934;51.532;7.684;2023-07-30T00:24:43;6.13;;;3.70;;
70467;SDS011;57934;51.532;7.684;2023-07-30T00:27:09;7.75;;;3.80;;
70467;SDS011;57934;51.532;7.684;2023-07-30T00:29:35;6.40;;;3.80;;
70467;SDS011;57934;51.532;7.684;2023-07-30T00:32:01;8.35;;;3.80;;
70467;SDS011;57934;51.532;7.684;2023-07-30T00:34:27;6.47;;;3.80;;
70467;SDS011;57934;51.532;7.684;2023-07-30T00:36:53;9.18;;;3.70;;
70467;SDS011;57934;51.532;7.684;2023-07-30T00:39:19;7.75;;;3.85;;
70467;SDS011;57934;51.532;7.684;2023-07-30T00:41:46;6.80;;;3.72;;
70467;SDS011;57934;51.532;7.684;2023-07-30T00:44:12;6.40;;;3.95;;
70467;SDS011;57934;51.532;7.684;2023-07-30T00:46:38;4.78;;;3.47;;
70467;SDS011;57934;51.532;7.684;2023-07-30T00:49:05;6.45;;;3.40;;
70467;SDS011;57934;51.532;7.684;2023-07-30T00:51:32;7.50;;;3.70;;
70467;SDS011;57934;51.532;7.684;2023-07-30T00:53:59;9.52;;;3.67;;
70467;SDS011;57934;51.532;7.684;2023-07-30T00:56:26;6.78;;;3.60;;
70467;SDS011;57934;51.532;7.684;2023-07-30T00:58:53;6.82;;;3.63;;
70467;SDS011;57934;51.532;7.684;2023-07-30T01:01:20;9.85;;;3.42;;
70467;SDS011;57934;51.532;7.684;2023-07-30T01:03:47;10.98;;;3.30;;
70467;SDS011;57934;51.532;7.684;2023-07-30T01:06:13;6.55;;;3.40;;
70467;SDS011;57934;51.532;7.684;2023-07-30T01:08:40;11.10;;;3.40;;
70467;SDS011;57934;51.532;7.684;2023-07-30T01:11:06;7.32;;;3.55;;
70467;SDS011;57934;51.532;7.684;2023-07-30T01:13:33;6.82;;;3.20;;
70467;SDS011;57934;51.532;7.684;2023-07-30T01:16:00;7.80;;;3.20;;
70467;SDS011;57934;51.532;7.684;2023-07-30T01:18:26;8.23;;;2.88;;
70467;SDS011;57934;51.532;7.684;2023-07-30T01:20:53;8.77;;;3.30;;
70467;SDS011;57934;51.532;7.684;2023-07-30T01:23:19;10.82;;;3.10;;
70467;SDS011;57934;51.532;7.684;2023-07-30T01:25:45;6.43;;;2.90;;
70467;SDS011;57934;51.532;7.684;2023-07-30T01:28:19;6.13;;;3.27;;
70467;SDS011;57934;51.532;7.684;2023-07-30T01:30:46;8.35;;;3.00;;
70467;SDS011;57934;51.532;7.684;2023-07-30T01:33:14;5.70;;;3.03;;
70467;SDS011;57934;51.532;7.684;2023-07-30T01:35:41;12.70;;;3.00;;
70467;SDS011;57934;51.532;7.684;2023-07-30T01:38:08;5.78;;;3.22;;
70467;SDS011;57934;51.532;7.684;2023-07-30T01:40:35;8.07;;;3.03;;
70467;SDS011;57934;51.532;7.684;2023-07-30T01:43:02;4.55;;;2.78;;
70467;SDS011;57934;51.532;7.684;2023-07-30T01:45:28;9.48;;;3.55;;
70467;SDS011;57934;51.532;7.684;2023-07-30T01:47:54;9.15;;;3.15;;
70467;SDS011;57934;51.532;7.684;2023-07-30T01:50:20;8.88;;;3.03;;
70467;SDS011;57934;51.532;7.684;2023-07-30T01:52:46;5.78;;;3.08;;
70467;SDS011;57934;51.532;7.684;2023-07-30T01:55:12;3.97;;;2.80;;
70467;SDS011;57934;51.532;7.684;2023-07-30T01:57:38;8.65;;;3.30;;
70467;SDS011;57934;51.532;7.684;2023-07-30T02:00:04;10.63;;;3.30;;
70467;SDS011;57934;51.532;7.684;2023-07-30T02:02:31;6.22;;;3.30;;
70467;SDS011;57934;51.532;7.684;2023-07-30T02:04:57;5.70;;;2.95;;
70467;SDS011;57934;51.532;7.684;2023-07-30T02:07:23;6.80;;;3.45;;
70467;SDS011;57934;51.532;7.684;2023-07-30T02:09:49;13.73;;;3.53;;
70467;SDS011;57934;51.532;7.684;2023-07-30T02:12:15;7.68;;;3.67;;
70467;SDS011;57934;51.532;7.684;2023-07-30T02:14:41;6.55;;;3.10;;
70467;SDS011;57934;51.532;7.684;2023-07-30T02:17:07;8.32;;;3.50;;
70467;SDS011;57934;51.532;7.684;2023-07-30T02:19:33;6.70;;;3.60;;
70467;SDS011;57934;51.532;7.684;2023-07-30T02:21:59;8.88;;;3.15;;
70467;SDS011;57934;51.532;7.684;2023-07-30T02:24:27;6.30;;;3.33;;
70467;SDS011;57934;51.532;7.684;2023-07-30T02:26:53;9.43;;;3.25;;
70467;SDS011;57934;51.532;7.684;2023-07-30T02:29:19;4.72;;;3.20;;
70467;SDS011;57934;51.532;7.684;2023-07-30T02:31:45;9.15;;;3.40;;
70467;SDS011;57934;51.532;7.684;2023-07-30T02:34:11;6.82;;;2.92;;
70467;SDS011;57934;51.532;7.684;2023-07-30T02:36:37;10.27;;;3.05;;
70467;SDS011;57934;51.532;7.684;2023-07-30T02:39:03;4.75;;;3.10;;
70467;SDS011;57934;51.532;7.684;2023-07-30T02:41:29;7.05;;;3.00;;
70467;SDS011;57934;51.532;7.684;2023-07-30T02:43:55;8.10;;;3.40;;
70467;SDS011;57934;51.532;7.684;2023-07-30T02:46:21;10.98;;;3.10;;
70467;SDS011;57934;51.532;7.684;2023-07-30T02:48:47;5.93;;;3.28;;
70467;SDS011;57934;51.532;7.684;2023-07-30T02:51:13;9.30;;;3.10;;
70467;SDS011;57934;51.532;7.684;2023-07-30T02:53:39;6.95;;;3.08;;
70467;SDS011;57934;51.532;7.684;2023-07-30T02:56:05;5.43;;;2.88;;
70467;SDS011;57934;51.532;7.684;2023-07-30T02:58:31;8.13;;;3.45;;
70467;SDS011;57934;51.532;7.684;2023-07-30T03:01:04;8.68;;;3.47;;
70467;SDS011;57934;51.532;7.684;2023-07-30T03:03:31;9.17;;;3.43;;
70467;SDS011;57934;51.532;7.684;2023-07-30T03:05:57;8.20;;;2.92;;
70467;SDS011;57934;51.532;7.684;2023-07-30T03:08:23;6.80;;;2.92;;
70467;SDS011;57934;51.532;7.684;2023-07-30T03:10:49;8.20;;;2.80;;
70467;SDS011;57934;51.532;7.684;2023-07-30T03:13:15;9.02;;;3.22;;
70467;SDS011;57934;51.532;7.684;2023-07-30T03:15:41;7.82;;;3.40;;
70467;SDS011;57934;51.532;7.684;2023-07-30T03:18:07;6.78;;;3.17;;
70467;SDS011;57934;51.532;7.684;2023-07-30T03:20:33;14.60;;;3.40;;
70467;SDS011;57934;51.532;7.684;2023-07-30T03:22:59;9.15;;;3.47;;
70467;SDS011;57934;51.532;7.684;2023-07-30T03:25:25;7.45;;;3.60;;
70467;SDS011;57934;51.532;7.684;2023-07-30T03:27:51;6.03;;;3.15;;
70467;SDS011;57934;51.532;7.684;2023-07-30T03:30:18;10.55;;;3.38;;
70467;SDS011;57934;51.532;7.684;2023-07-30T03:32:44;7.20;;;3.00;;
70467;SDS011;57934;51.532;7.684;2023-07-30T03:35:10;10.43;;;3.13;;
70467;SDS011;57934;51.532;7.684;2023-07-30T03:37:36;7.57;;;3.50;;
70467;SDS011;57934;51.532;7.684;2023-07-30T03:40:04;12.18;;;3.88;;
70467;SDS011;57934;51.532;7.684;2023-07-30T03:42:31;8.00;;;3.67;;
70467;SDS011;57934;51.532;7.684;2023-07-30T03:44:57;7.38;;;3.38;;
70467;SDS011;57934;51.532;7.684;2023-07-30T03:47:23;8.02;;;3.33;;
70467;SDS011;57934;51.532;7.684;2023-07-30T03:49:49;5.25;;;3.25;;
70467;SDS011;57934;51.532;7.684;2023-07-30T03:52:15;10.23;;;3.33;;
70467;SDS011;57934;51.532;7.684;2023-07-30T03:54:43;9.30;;;3.35;;
70467;SDS011;57934;51.532;7.684;2023-07-30T03:57:09;13.20;;;3.33;;
70467;SDS011;57934;51.532;7.684;2023-07-30T03:59:35;9.93;;;3.30;;
70467;SDS011;57934;51.532;7.684;2023-07-30T04:02:01;10.93;;;3.42;;
70467;SDS011;57934;51.532;7.684;2023-07-30T04:04:27;9.77;;;3.35;;
70467;SDS011;57934;51.532;7.684;2023-07-30T04:06:53;11.27;;;3.65;;
70467;SDS011;57934;51.532;7.684;2023-07-30T04:09:19;6.78;;;3.40;;
70467;SDS011;57934;51.532;7.684;2023-07-30T04:11:45;7.60;;;3.35;;
70467;SDS011;57934;51.532;7.684;2023-07-30T04:14:11;10.00;;;3.55;;
70467;SDS011;57934;51.532;7.684;2023-07-30T04:16:37;7.90;;;3.17;;
70467;SDS011;57934;51.532;7.684;2023-07-30T04:19:03;9.70;;;3.20;;
70467;SDS011;57934;51.532;7.684;2023-07-30T04:21:29;11.60;;;3.85;;
70467;SDS011;57934;51.532;7.684;2023-07-30T04:23:55;6.97;;;3.28;;
70467;SDS011;57934;51.532;7.684;2023-07-30T04:26:21;8.77;;;2.60;;
70467;SDS011;57934;51.532;7.684;2023-07-30T04:28:47;11.05;;;3.20;;
70467;SDS011;57934;51.532;7.684;2023-07-30T04:31:14;8.88;;;3.03;;
70467;SDS011;57934;51.532;7.684;2023-07-30T04:33:40;12.05;;;2.90;;
70467;SDS011;57934;51.532;7.684;2023-07-30T04:36:07;11.10;;;2.97;;
70467;SDS011;57934;51.532;7.684;2023-07-30T04:38:33;5.03;;;2.88;;
70467;SDS011;57934;51.532;7.684;2023-07-30T04:40:59;4.80;;;2.45;;
70467;SDS011;57934;51.532;7.684;2023-07-30T04:43:27;12.50;;;2.67;;
70467;SDS011;57934;51.532;7.684;2023-07-30T04:45:56;7.10;;;2.70;;
70467;SDS011;57934;51.532;7.684;2023-07-30T04:48:22;4.68;;;2.50;;
70467;SDS011;57934;51.532;7.684;2023-07-30T04:50:49;10.60;;;3.05;;
70467;SDS011;57934;51.532;7.684;2023-07-30T04:53:15;11.25;;;2.97;;
70467;SDS011;57934;51.532;7.684;2023-07-30T04:55:43;12.00;;;3.13;;
70467;SDS011;57934;51.532;7.684;2023-07-30T04:58:09;6.65;;;3.35;;
70467;SDS011;57934;51.532;7.684;2023-07-30T05:00:36;7.65;;;3.47;;
70467;SDS011;57934;51.532;7.684;2023-07-30T05:03:02;8.18;;;3.00;;
70467;SDS011;57934;51.532;7.684;2023-07-30T05:05:28;8.60;;;3.97;;
70467;SDS011;57934;51.532;7.684;2023-07-30T05:07:54;9.07;;;3.30;;
70467;SDS011;57934;51.532;7.684;2023-07-30T05:10:20;10.00;;;3.00;;
70467;SDS011;57934;51.532;7.684;2023-07-30T05:12:46;9.57;;;2.85;;
70467;SDS011;57934;51.532;7.684;2023-07-30T05:15:12;9.32;;;3.83;;
70467;SDS011;57934;51.532;7.684;2023-07-30T05:17:38;9.15;;;3.38;;
70467;SDS011;57934;51.532;7.684;2023-07-30T05:20:04;8.65;;;2.63;;
70467;SDS011;57934;51.532;7.684;2023-07-30T05:22:31;8.18;;;2.80;;
70467;SDS011;57934;51.532;7.684;2023-07-30T05:24:57;10.45;;;3.80;;
70467;SDS011;57934;51.532;7.684;2023-07-30T05:27:23;10.25;;;2.70;;
70467;SDS011;57934;51.532;7.684;2023-07-30T05:29:49;10.27;;;3.40;;
70467;SDS011;57934;51.532;7.684;2023-07-30T05:32:15;5.82;;;3.13;;
70467;SDS011;57934;51.532;7.684;2023-07-30T05:34:41;7.10;;;2.63;;
70467;SDS011;57934;51.532;7.684;2023-07-30T05:37:08;11.48;;;3.22;;
70467;SDS011;57934;51.532;7.684;2023-07-30T05:39:34;13.25;;;3.10;;
70467;SDS011;57934;51.532;7.684;2023-07-30T05:42:00;10.50;;;2.65;;
70467;SDS011;57934;51.532;7.684;2023-07-30T05:44:26;11.90;;;3.05;;
70467;SDS011;57934;51.532;7.684;2023-07-30T05:46:52;7.75;;;2.83;;
70467;SDS011;57934;51.532;7.684;2023-07-30T05:49:18;17.00;;;3.85;;
70467;SDS011;57934;51.532;7.684;2023-07-30T05:51:45;8.10;;;2.92;;
70467;SDS011;57934;51.532;7.684;2023-07-30T05:54:11;15.77;;;3.00;;
70467;SDS011;57934;51.532;7.684;2023-07-30T05:56:38;13.00;;;2.92;;
70467;SDS011;57934;51.532;7.684;2023-07-30T05:59:04;12.50;;;3.00;;
70467;SDS011;57934;51.532;7.684;2023-07-30T06:01:30;14.10;;;3.17;;
70467;SDS011;57934;51.532;7.684;2023-07-30T06:03:56;11.15;;;2.90;;
70467;SDS011;57934;51.532;7.684;2023-07-30T06:06:22;10.98;;;2.90;;
70467;SDS011;57934;51.532;7.684;2023-07-30T06:08:53;10.57;;;2.80;;
70467;SDS011;57934;51.532;7.684;2023-07-30T06:11:20;11.43;;;2.80;;
70467;SDS011;57934;51.532;7.684;2023-07-30T06:13:46;7.68;;;2.70;;
70467;SDS011;57934;51.532;7.684;2023-07-30T06:16:12;13.05;;;2.90;;
70467;SDS011;57934;51.532;7.684;2023-07-30T06:18:39;9.88;;;3.28;;
70467;SDS011;57934;51.532;7.684;2023-07-30T06:21:05;6.18;;;2.40;;
70467;SDS011;57934;51.532;7.684;2023-07-30T06:23:31;8.35;;;2.95;;
70467;SDS011;57934;51.532;7.684;2023-07-30T06:25:57;8.40;;;2.85;;
70467;SDS011;57934;51.532;7.684;2023-07-30T06:28:23;12.05;;;3.28;;
70467;SDS011;57934;51.532;7.684;2023-07-30T06:30:50;10.70;;;2.85;;
70467;SDS011;57934;51.532;7.684;2023-07-30T06:33:16;12.95;;;3.03;;
70467;SDS011;57934;51.532;7.684;2023-07-30T06:35:42;15.25;;;3.00;;
70467;SDS011;57934;51.532;7.684;2023-07-30T06:38:08;11.90;;;2.88;;
70467;SDS011;57934;51.532;7.684;2023-07-30T06:40:34;11.77;;;3.03;;
70467;SDS011;57934;51.532;7.684;2023-07-30T06:43:00;9.55;;;3.30;;
70467;SDS011;57934;51.532;7.684;2023-07-30T06:45:26;6.97;;;2.70;;
70467;SDS011;57934;51.532;7.684;2023-07-30T06:47:52;10.40;;;3.10;;
70467;SDS011;57934;51.532;7.684;2023-07-30T06:50:18;9.00;;;3.28;;
70467;SDS011;57934;51.532;7.684;2023-07-30T06:52:44;8.88;;;3.00;;
70467;SDS011;57934;51.532;7.684;2023-07-30T06:55:10;12.45;;;3.17;;
70467;SDS011;57934;51.532;7.684;2023-07-30T06:57:36;7.15;;;2.83;;
70467;SDS011;57934;51.532;7.684;2023-07-30T07:00:03;14.25;;;3.20;;
70467;SDS011;57934;51.532;7.684;2023-07-30T07:02:30;11.20;;;3.30;;
70467;SDS011;57934;51.532;7.684;2023-07-30T07:04:56;8.02;;;2.90;;
70467;SDS011;57934;51.532;7.684;2023-07-30T07:07:22;11.88;;;3.28;;
70467;SDS011;57934;51.532;7.684;2023-07-30T07:09:48;10.50;;;3.65;;
70467;SDS011;57934;51.532;7.684;2023-07-30T07:12:14;12.43;;;4.28;;
70467;SDS011;57934;51.532;7.684;2023-07-30T07:14:40;9.68;;;3.63;;
70467;SDS011;57934;51.532;7.684;2023-07-30T07:17:08;14.30;;;3.63;;
70467;SDS011;57934;51.532;7.684;2023-07-30T07:19:34;10.20;;;3.05;;
70467;SDS011;57934;51.532;7.684;2023-07-30T07:22:05;11.25;;;3.25;;
70467;SDS011;57934;51.532;7.684;2023-07-30T07:24:31;16.13;;;3.67;;
70467;SDS011;57934;51.532;7.684;2023-07-30T07:26:57;11.98;;;4.95;;
70467;SDS011;57934;51.532;7.684;2023-07-30T07:29:24;12.65;;;5.47;;
70467;SDS011;57934;51.532;7.684;2023-07-30T07:31:50;11.95;;;4.97;;
70467;SDS011;57934;51.532;7.684;2023-07-30T07:34:16;11.73;;;4.47;;
70467;SDS011;57934;51.532;7.684;2023-07-30T07:36:42;13.10;;;4.25;;
70467;SDS011;57934;51.532;7.684;2023-07-30T07:39:08;9.02;;;3.97;;
70467;SDS011;57934;51.532;7.684;2023-07-30T07:41:34;10.80;;;3.40;;
70467;SDS011;57934;51.532;7.684;2023-07-30T07:44:00;9.27;;;3.20;;
70467;SDS011;57934;51.532;7.684;2023-07-30T07:46:26;12.18;;;3.50;;
70467;SDS011;57934;51.532;7.684;2023-07-30T07:48:53;8.85;;;2.88;;
70467;SDS011;57934;51.532;7.684;2023-07-30T07:51:19;11.07;;;3.25;;
70467;SDS011;57934;51.532;7.684;2023-07-30T07:53:45;13.60;;;3.58;;
70467;SDS011;57934;51.532;7.684;2023-07-30T07:56:11;14.52;;;4.35;;
70467;SDS011;57934;51.532;7.684;2023-07-30T07:58:37;12.60;;;4.18;;
70467;SDS011;57934;51.532;7.684;2023-07-30T08:01:03;13.43;;;3.97;;
70467;SDS011;57934;51.532;7.684;2023-07-30T08:03:29;16.85;;;3.88;;
70467;SDS011;57934;51.532;7.684;2023-07-30T08:05:55;8.85;;;4.15;;
70467;SDS011;57934;51.532;7.684;2023-07-30T08:08:21;13.52;;;4.72;;
70467;SDS011;57934;51.532;7.684;2023-07-30T08:10:47;16.33;;;6.70;;
70467;SDS011;57934;51.532;7.684;2023-07-30T08:13:14;12.98;;;6.50;;
70467;SDS011;57934;51.532;7.684;2023-07-30T08:15:40;12.88;;;5.70;;
70467;SDS011;57934;51.532;7.684;2023-07-30T08:18:06;13.05;;;4.53;;
70467;SDS011;57934;51.532;7.684;2023-07-30T08:20:33;14.05;;;4.30;;
70467;SDS011;57934;51.532;7.684;2023-07-30T08:22:59;9.88;;;3.33;;
70467;SDS011;57934;51.532;7.684;2023-07-30T08:25:25;13.80;;;3.42;;
70467;SDS011;57934;51.532;7.684;2023-07-30T08:27:51;14.52;;;3.53;;
70467;SDS011;57934;51.532;7.684;2023-07-30T08:30:17;14.45;;;3.22;;
70467;SDS011;57934;51.532;7.684;2023-07-30T08:32:43;9.98;;;2.97;;
70467;SDS011;57934;51.532;7.684;2023-07-30T08:35:09;8.13;;;3.35;;
70467;SDS011;57934;51.532;7.684;2023-07-30T08:37:36;12.23;;;3.15;;
70467;SDS011;57934;51.532;7.684;2023-07-30T08:40:02;12.25;;;3.30;;
70467;SDS011;57934;51.532;7.684;2023-07-30T08:42:29;8.95;;;3.30;;
70467;SDS011;57934;51.532;7.684;2023-07-30T08:44:55;11.18;;;3.17;;
70467;SDS011;57934;51.532;7.684;2023-07-30T08:47:21;12.77;;;3.20;;
70467;SDS011;57934;51.532;7.684;2023-07-30T08:49:47;8.82;;;3.03;;
70467;SDS011;57934;51.532;7.684;2023-07-30T08:52:13;13.98;;;3.83;;
70467;SDS011;57934;51.532;7.684;2023-07-30T08:54:42;16.23;;;3.38;;
70467;SDS011;57934;51.532;7.684;2023-07-30T08:57:12;12.95;;;4.00;;
70467;SDS011;57934;51.532;7.684;2023-07-30T08:59:49;9.65;;;3.30;;
70467;SDS011;57934;51.532;7.684;2023-07-30T09:02:24;10.80;;;4.50;;
70467;SDS011;57934;51.532;7.684;2023-07-30T09:04:56;9.68;;;3.78;;
70467;SDS011;57934;51.532;7.684;2023-07-30T09:07:25;11.55;;;3.67;;
70467;SDS011;57934;51.532;7.684;2023-07-30T09:09:51;16.02;;;3.65;;
70467;SDS011;57934;51.532;7.684;2023-07-30T09:12:18;11.73;;;3.33;;
70467;SDS011;57934;51.532;7.684;2023-07-30T09:14:44;14.52;;;3.42;;
70467;SDS011;57934;51.532;7.684;2023-07-30T09:17:19;13.88;;;3.67;;
70467;SDS011;57934;51.532;7.684;2023-07-30T09:19:46;15.02;;;3.20;;
70467;SDS011;57934;51.532;7.684;2023-07-30T09:22:24;8.73;;;2.95;;
70467;SDS011;57934;51.532;7.684;2023-07-30T09:24:54;14.15;;;3.30;;
70467;SDS011;57934;51.532;7.684;2023-07-30T09:27:21;7.03;;;2.83;;
70467;SDS011;57934;51.532;7.684;2023-07-30T09:29:52;8.45;;;2.53;;
70467;SDS011;57934;51.532;7.684;2023-07-30T09:32:19;9.85;;;2.58;;
70467;SDS011;57934;51.532;7.684;2023-07-30T09:34:46;10.07;;;2.53;;
70467;SDS011;57934;51.532;7.684;2023-07-30T09:37:13;15.65;;;3.20;;
70467;SDS011;57934;51.532;7.684;2023-07-30T09:39:39;12.35;;;3.20;;
70467;SDS011;57934;51.532;7.684;2023-07-30T09:42:06;9.00;;;2.38;;
70467;SDS011;57934;51.532;7.684;2023-07-30T09:44:32;10.45;;;2.97;;
70467;SDS011;57934;51.532;7.684;2023-07-30T09:47:01;11.05;;;2.92;;
70467;SDS011;57934;51.532;7.684;2023-07-30T09:49:37;7.93;;;2.58;;
70467;SDS011;57934;51.532;7.684;2023-07-30T09:52:09;9.13;;;2.40;;
70467;SDS011;57934;51.532;7.684;2023-07-30T09:54:37;8.80;;;2.03;;
70467;SDS011;57934;51.532;7.684;2023-07-30T09:57:05;7.65;;;2.47;;
70467;SDS011;57934;51.532;7.684;2023-07-30T09:59:32;8.00;;;2.40;;
70467;SDS011;57934;51.532;7.684;2023-07-30T10:01:59;11.13;;;2.95;;
70467;SDS011;57934;51.532;7.684;2023-07-30T10:04:26;11.95;;;2.28;;
70467;SDS011;57934;51.532;7.684;2023-07-30T10:06:55;9.43;;;2.70;;
70467;SDS011;57934;51.532;7.684;2023-07-30T10:09:25;9.55;;;2.50;;
70467;SDS011;57934;51.532;7.684;2023-07-30T10:11:56;9.57;;;2.47;;
70467;SDS011;57934;51.532;7.684;2023-07-30T10:14:24;4.57;;;2.20;;
70467;SDS011;57934;51.532;7.684;2023-07-30T10:16:55;5.78;;;2.30;;
70467;SDS011;57934;51.532;7.684;2023-07-30T10:19:28;7.90;;;2.42;;
70467;SDS011;57934;51.532;7.684;2023-07-30T10:22:01;6.90;;;2.38;;
70467;SDS011;57934;51.532;7.684;2023-07-30T10:24:39;8.43;;;2.40;;
70467;SDS011;57934;51.532;7.684;2023-07-30T10:27:07;6.28;;;2.20;;
70467;SDS011;57934;51.532;7.684;2023-07-30T10:29:34;9.00;;;2.17;;
70467;SDS011;57934;51.532;7.684;2023-07-30T10:32:05;8.65;;;2.10;;
70467;SDS011;57934;51.532;7.684;2023-07-30T10:34:45;7.05;;;2.17;;
70467;SDS011;57934;51.532;7.684;2023-07-30T10:37:20;4.95;;;2.17;;
70467;SDS011;57934;51.532;7.684;2023-07-30T10:39:50;9.60;;;2.00;;
70467;SDS011;57934;51.532;7.684;2023-07-30T10:42:16;5.95;;;1.75;;
70467;SDS011;57934;51.532;7.684;2023-07-30T10:44:44;5.40;;;1.75;;
70467;SDS011;57934;51.532;7.684;2023-07-30T10:47:11;5.10;;;1.88;;
70467;SDS011;57934;51.532;7.684;2023-07-30T10:49:41;7.97;;;1.95;;
70467;SDS011;57934;51.532;7.684;2023-07-30T10:52:09;4.72;;;1.73;;
70467;SDS011;57934;51.532;7.684;2023-07-30T10:54:36;7.97;;;1.98;;
70467;SDS011;57934;51.532;7.684;2023-07-30T10:57:02;5.65;;;1.95;;
70467;SDS011;57934;51.532;7.684;2023-07-30T10:59:35;6.65;;;1.63;;
70467;SDS011;57934;51.532;7.684;2023-07-30T11:02:02;7.25;;;1.70;;
70467;SDS011;57934;51.532;7.684;2023-07-30T11:04:32;5.43;;;1.48;;
70467;SDS011;57934;51.532;7.684;2023-07-30T11:06:59;8.75;;;1.90;;
70467;SDS011;57934;51.532;7.684;2023-07-30T11:09:26;8.00;;;1.85;;
70467;SDS011;57934;51.532;7.684;2023-07-30T11:11:54;4.90;;;1.60;;
70467;SDS011;57934;51.532;7.684;2023-07-30T11:14:21;4.57;;;1.58;;
70467;SDS011;57934;51.532;7.684;2023-07-30T11:16:55;7.97;;;1.80;;
70467;SDS011;57934;51.532;7.684;2023-07-30T11:19:27;5.03;;;1.85;;
70467;SDS011;57934;51.532;7.684;2023-07-30T11:21:54;6.00;;;1.77;;
70467;SDS011;57934;51.532;7.684;2023-07-30T11:24:23;4.35;;;1.58;;
70467;SDS011;57934;51.532;7.684;2023-07-30T11:27:00;6.57;;;1.65;;
70467;SDS011;57934;51.532;7.684;2023-07-30T11:29:26;7.80;;;1.42;;
70467;SDS011;57934;51.532;7.684;2023-07-30T11:31:55;7.80;;;1.73;;
70467;SDS011;57934;51.532;7.684;2023-07-30T11:34:22;4.90;;;1.75;;
70467;SDS011;57934;51.532;7.684;2023-07-30T11:36:49;4.25;;;1.23;;
70467;SDS011;57934;51.532;7.684;2023-07-30T11:39:15;5.07;;;1.67;;
70467;SDS011;57934;51.532;7.684;2023-07-30T11:41:42;3.90;;;1.48;;
70467;SDS011;57934;51.532;7.684;2023-07-30T11:44:08;6.35;;;1.92;;
70467;SDS011;57934;51.532;7.684;2023-07-30T11:46:35;3.78;;;1.40;;
70467;SDS011;57934;51.532;7.684;2023-07-30T11:49:12;4.53;;;1.40;;
70467;SDS011;57934;51.532;7.684;2023-07-30T11:51:40;6.68;;;2.00;;
70467;SDS011;57934;51.532;7.684;2023-07-30T11:54:07;3.55;;;1.77;;
70467;SDS011;57934;51.532;7.684;2023-07-30T11:56:43;6.10;;;1.45;;
70467;SDS011;57934;51.532;7.684;2023-07-30T11:59:09;8.80;;;1.98;;
70467;SDS011;57934;51.532;7.684;2023-07-30T12:01:35;8.23;;;1.70;;
70467;SDS011;57934;51.532;7.684;2023-07-30T12:04:03;3.58;;;1.30;;
70467;SDS011;57934;51.532;7.684;2023-07-30T12:09:14;7.75;;;1.73;;
70467;SDS011;57934;51.532;7.684;2023-07-30T12:11:56;4.38;;;1.20;;
70467;SDS011;57934;51.532;7.684;2023-07-30T12:14:24;6.68;;;1.77;;
70467;SDS011;57934;51.532;7.684;2023-07-30T12:16:56;5.28;;;1.63;;
70467;SDS011;57934;51.532;7.684;2023-07-30T12:19:22;5.28;;;1.60;;
70467;SDS011;57934;51.532;7.684;2023-07-30T12:21:48;4.05;;;1.90;;
70467;SDS011;57934;51.532;7.684;2023-07-30T12:24:14;5.50;;;1.30;;
70467;SDS011;57934;51.532;7.684;2023-07-30T12:26:41;6.72;;;1.85;;
70467;SDS011;57934;51.532;7.684;2023-07-30T12:29:07;7.82;;;1.63;;
70467;SDS011;57934;51.532;7.684;2023-07-30T12:31:34;6.75;;;1.90;;
70467;SDS011;57934;51.532;7.684;2023-07-30T12:34:00;7.30;;;1.60;;
70467;SDS011;57934;51.532;7.684;2023-07-30T12:36:26;5.88;;;1.65;;
70467;SDS011;57934;51.532;7.684;2023-07-30T12:38:52;6.07;;;1.65;;
70467;SDS011;57934;51.532;7.684;2023-07-30T12:41:21;4.15;;;1.30;;
70467;SDS011;57934;51.532;7.684;2023-07-30T12:43:54;9.98;;;1.70;;
70467;SDS011;57934;51.532;7.684;2023-07-30T12:46:25;4.95;;;1.23;;
70467;SDS011;57934;51.532;7.684;2023-07-30T12:48:56;5.18;;;1.48;;
70467;SDS011;57934;51.532;7.684;2023-07-30T12:51:22;3.97;;;1.67;;
70467;SDS011;57934;51.532;7.684;2023-07-30T12:53:48;10.73;;;2.53;;
70467;SDS011;57934;51.532;7.684;2023-07-30T12:56:14;6.50;;;1.58;;
70467;SDS011;57934;51.532;7.684;2023-07-30T12:58:41;7.70;;;1.80;;
70467;SDS011;57934;51.532;7.684;2023-07-30T13:01:07;4.35;;;1.70;;
70467;SDS011;57934;51.532;7.684;2023-07-30T13:03:33;6.68;;;1.65;;
70467;SDS011;57934;51.532;7.684;2023-07-30T13:05:59;6.93;;;2.00;;
70467;SDS011;57934;51.532;7.684;2023-07-30T13:08:26;5.40;;;1.52;;
70467;SDS011;57934;51.532;7.684;2023-07-30T13:10:52;6.57;;;1.50;;
70467;SDS011;57934;51.532;7.684;2023-07-30T13:13:18;4.47;;;1.60;;
70467;SDS011;57934;51.532;7.684;2023-07-30T13:15:44;7.75;;;1.92;;
70467;SDS011;57934;51.532;7.684;2023-07-30T13:18:10;7.65;;;1.48;;
70467;SDS011;57934;51.532;7.684;2023-07-30T13:20:36;6.35;;;2.13;;
70467;SDS011;57934;51.532;7.684;2023-07-30T13:23:02;5.03;;;1.20;;
70467;SDS011;57934;51.532;7.684;2023-07-30T13:25:28;4.90;;;1.17;;
70467;SDS011;57934;51.532;7.684;2023-07-30T13:27:54;3.80;;;1.50;;
70467;SDS011;57934;51.532;7.684;2023-07-30T13:30:20;6.72;;;1.45;;
70467;SDS011;57934;51.532;7.684;2023-07-30T13:32:46;6.75;;;1.50;;
70467;SDS011;57934;51.532;7.684;2023-07-30T13:35:12;5.70;;;1.25;;
70467;SDS011;57934;51.532;7.684;2023-07-30T13:37:38;8.80;;;1.70;;
70467;SDS011;57934;51.532;7.684;2023-07-30T13:40:05;7.30;;;1.83;;
70467;SDS011;57934;51.532;7.684;2023-07-30T13:42:32;5.80;;;1.30;;
70467;SDS011;57934;51.532;7.684;2023-07-30T13:44:58;4.72;;;1.38;;
70467;SDS011;57934;51.532;7.684;2023-07-30T13:47:24;5.10;;;1.45;;
70467;SDS011;57934;51.532;7.684;2023-07-30T13:49:50;3.40;;;1.08;;
70467;SDS011;57934;51.532;7.684;2023-07-30T13:52:16;5.75;;;1.13;;
70467;SDS011;57934;51.532;7.684;2023-07-30T13:54:42;6.20;;;1.10;;
70467;SDS011;57934;51.532;7.684;2023-07-30T13:57:10;4.47;;;1.00;;
70467;SDS011;57934;51.532;7.684;2023-07-30T13:59:37;1.55;;;0.80;;
70467;SDS011;57934;51.532;7.684;2023-07-30T14:02:04;6.30;;;1.13;;
70467;SDS011;57934;51.532;7.684;2023-07-30T14:04:30;3.00;;;1.08;;
70467;SDS011;57934;51.532;7.684;2023-07-30T14:07:01;5.53;;;1.08;;
70467;SDS011;57934;51.532;7.684;2023-07-30T14:09:27;2.95;;;0.90;;
70467;SDS011;57934;51.532;7.684;2023-07-30T14:11:59;3.88;;;0.95;;
70467;SDS011;57934;51.532;7.684;2023-07-30T14:14:25;5.03;;;1.55;;
70467;SDS011;57934;51.532;7.684;2023-07-30T14:16:53;3.60;;;1.08;;
70467;SDS011;57934;51.532;7.684;2023-07-30T14:19:20;4.20;;;0.90;;
70467;SDS011;57934;51.532;7.684;2023-07-30T14:21:46;3.97;;;1.00;;
70467;SDS011;57934;51.532;7.684;2023-07-30T14:24:12;3.55;;;1.17;;
70467;SDS011;57934;51.532;7.684;2023-07-30T14:26:39;5.03;;;1.45;;
70467;SDS011;57934;51.532;7.684;2023-07-30T14:29:05;2.50;;;1.00;;
70467;SDS011;57934;51.532;7.684;2023-07-30T14:31:31;3.22;;;1.45;;
70467;SDS011;57934;51.532;7.684;2023-07-30T14:33:57;6.78;;;1.40;;
70467;SDS011;57934;51.532;7.684;2023-07-30T14:36:23;5.63;;;1.50;;
70467;SDS011;57934;51.532;7.684;2023-07-30T14:38:50;5.45;;;1.33;;
70467;SDS011;57934;51.532;7.684;2023-07-30T14:41:16;4.25;;;1.25;;
70467;SDS011;57934;51.532;7.684;2023-07-30T14:43:42;5.13;;;1.13;;